sensor_id;sensor_type;location;lat;lon;timestamp;P1;durP1;ratioP1;P2;durP2;ratioP2
50012;SDS011;35901;48.694;9.476;2023-07-28T00:00:36;6.50;;;5.90;;
50012;SDS011;35901;48.694;9.476;2023-07-28T00:03:02;5.83;;;5.33;;
50012;SDS011;35901;48.694;9.476;2023-07-28T00:05:28;6.60;;;5.97;;
50012;SDS011;35901;48.694;9.476;2023-07-28T00:07:53;5.87;;;5.37;;
50012;SDS011;35901;48.694;9.476;2023-07-28T00:10:19;6.30;;;5.80;;
50012;SDS011;35901;48.694;9.476;2023-07-28T00:12:45;5.60;;;5.10;;
50012;SDS011;35901;48.694;9.476;2023-07-28T00:15:10;5.63;;;5.23;;
50012;SDS011;35901;48.694;9.476;2023-07-28T00:17:36;5.63;;;5.13;;
50012;SDS011;35901;48.694;9.476;2023-07-28T00:20:02;5.80;;;5.27;;
50012;SDS011;35901;48.694;9.476;2023-07-28T00:22:27;5.90;;;5.33;;
50012;SDS011;35901;48.694;9.476;2023-07-28T00:24:53;6.00;;;5.40;;
50012;SDS011;35901;48.694;9.476;2023-07-28T00:27:19;6.27;;;5.67;;
50012;SDS011;35901;48.694;9.476;2023-07-28T00:29:44;7.37;;;6.63;;
50012;SDS011;35901;48.694;9.476;2023-07-28T00:32:10;7.07;;;6.23;;
50012;SDS011;35901;48.694;9.476;2023-07-28T00:34:36;6.87;;;6.10;;
50012;SDS011;35901;48.694;9.476;2023-07-28T00:37:01;5.83;;;5.33;;
50012;SDS011;35901;48.694;9.476;2023-07-28T00:39:34;5.53;;;5.03;;
50012;SDS011;35901;48.694;9.476;2023-07-28T00:41:59;6.17;;;5.57;;
50012;SDS011;35901;48.694;9.476;2023-07-28T00:44:25;5.80;;;5.20;;
50012;SDS011;35901;48.694;9.476;2023-07-28T00:46:50;5.53;;;5.00;;
50012;SDS011;35901;48.694;9.476;2023-07-28T00:49:16;5.90;;;5.30;;
50012;SDS011;35901;48.694;9.476;2023-07-28T00:51:42;6.10;;;5.53;;
50012;SDS011;35901;48.694;9.476;2023-07-28T00:54:08;6.57;;;6.07;;
50012;SDS011;35901;48.694;9.476;2023-07-28T00:56:34;5.60;;;5.10;;
50012;SDS011;35901;48.694;9.476;2023-07-28T00:59:00;5.90;;;5.40;;
50012;SDS011;35901;48.694;9.476;2023-07-28T01:01:26;6.93;;;5.63;;
50012;SDS011;35901;48.694;9.476;2023-07-28T01:03:52;7.00;;;5.40;;
50012;SDS011;35901;48.694;9.476;2023-07-28T01:11:17;8.40;;;5.80;;
50012;SDS011;35901;48.694;9.476;2023-07-28T01:13:42;5.40;;;5.00;;
50012;SDS011;35901;48.694;9.476;2023-07-28T01:16:08;6.50;;;5.50;;
50012;SDS011;35901;48.694;9.476;2023-07-28T01:18:34;6.73;;;5.90;;
50012;SDS011;35901;48.694;9.476;2023-07-28T01:21:00;6.07;;;5.33;;
50012;SDS011;35901;48.694;9.476;2023-07-28T01:26:36;6.53;;;5.93;;
50012;SDS011;35901;48.694;9.476;2023-07-28T01:29:03;7.77;;;6.40;;
50012;SDS011;35901;48.694;9.476;2023-07-28T01:31:30;6.03;;;5.50;;
50012;SDS011;35901;48.694;9.476;2023-07-28T01:33:56;5.93;;;5.53;;
50012;SDS011;35901;48.694;9.476;2023-07-28T01:36:22;6.70;;;6.20;;
50012;SDS011;35901;48.694;9.476;2023-07-28T01:38:48;5.83;;;5.33;;
50012;SDS011;35901;48.694;9.476;2023-07-28T01:41:13;6.40;;;5.87;;
50012;SDS011;35901;48.694;9.476;2023-07-28T01:43:39;6.50;;;5.90;;
50012;SDS011;35901;48.694;9.476;2023-07-28T01:46:05;5.77;;;5.27;;
50012;SDS011;35901;48.694;9.476;2023-07-28T01:48:30;6.23;;;5.63;;
50012;SDS011;35901;48.694;9.476;2023-07-28T01:50:56;11.20;;;6.27;;
50012;SDS011;35901;48.694;9.476;2023-07-28T01:53:22;34.23;;;7.27;;
50012;SDS011;35901;48.694;9.476;2023-07-28T01:55:47;23.37;;;6.03;;
50012;SDS011;35901;48.694;9.476;2023-07-28T01:58:13;6.33;;;5.83;;
50012;SDS011;35901;48.694;9.476;2023-07-28T02:00:39;6.90;;;5.87;;
50012;SDS011;35901;48.694;9.476;2023-07-28T02:03:05;6.40;;;5.80;;
50012;SDS011;35901;48.694;9.476;2023-07-28T02:05:43;17.33;;;7.57;;
50012;SDS011;35901;48.694;9.476;2023-07-28T02:08:09;10.37;;;8.10;;
50012;SDS011;35901;48.694;9.476;2023-07-28T02:10:35;7.80;;;7.10;;
50012;SDS011;35901;48.694;9.476;2023-07-28T02:13:01;6.90;;;6.30;;
50012;SDS011;35901;48.694;9.476;2023-07-28T02:15:27;7.13;;;6.43;;
50012;SDS011;35901;48.694;9.476;2023-07-28T02:17:55;7.40;;;6.70;;
50012;SDS011;35901;48.694;9.476;2023-07-28T02:20:21;15.70;;;7.47;;
50012;SDS011;35901;48.694;9.476;2023-07-28T02:22:47;12.13;;;6.03;;
50012;SDS011;35901;48.694;9.476;2023-07-28T02:25:12;8.23;;;6.83;;
50012;SDS011;35901;48.694;9.476;2023-07-28T02:27:38;10.93;;;8.13;;
50012;SDS011;35901;48.694;9.476;2023-07-28T02:30:05;10.23;;;9.23;;
50012;SDS011;35901;48.694;9.476;2023-07-28T02:32:31;8.27;;;7.50;;
50012;SDS011;35901;48.694;9.476;2023-07-28T02:34:58;8.73;;;7.83;;
50012;SDS011;35901;48.694;9.476;2023-07-28T02:37:24;8.47;;;7.67;;
50012;SDS011;35901;48.694;9.476;2023-07-28T02:39:50;10.40;;;9.00;;
50012;SDS011;35901;48.694;9.476;2023-07-28T02:42:19;8.30;;;7.50;;
50012;SDS011;35901;48.694;9.476;2023-07-28T02:44:45;9.27;;;7.97;;
50012;SDS011;35901;48.694;9.476;2023-07-28T02:47:10;9.73;;;7.67;;
50012;SDS011;35901;48.694;9.476;2023-07-28T02:49:36;7.70;;;6.90;;
50012;SDS011;35901;48.694;9.476;2023-07-28T02:52:02;8.10;;;7.30;;
50012;SDS011;35901;48.694;9.476;2023-07-28T02:54:28;8.07;;;7.27;;
50012;SDS011;35901;48.694;9.476;2023-07-28T02:56:54;7.73;;;6.97;;
50012;SDS011;35901;48.694;9.476;2023-07-28T02:59:21;8.97;;;7.37;;
50012;SDS011;35901;48.694;9.476;2023-07-28T03:01:48;7.93;;;7.23;;
50012;SDS011;35901;48.694;9.476;2023-07-28T03:04:17;8.13;;;7.03;;
50012;SDS011;35901;48.694;9.476;2023-07-28T03:07:08;7.80;;;7.10;;
50012;SDS011;35901;48.694;9.476;2023-07-28T03:09:36;8.20;;;6.60;;
50012;SDS011;35901;48.694;9.476;2023-07-28T03:12:02;7.23;;;6.30;;
50012;SDS011;35901;48.694;9.476;2023-07-28T03:14:28;7.67;;;6.90;;
50012;SDS011;35901;48.694;9.476;2023-07-28T03:16:54;7.50;;;6.60;;
50012;SDS011;35901;48.694;9.476;2023-07-28T03:19:20;8.13;;;7.37;;
50012;SDS011;35901;48.694;9.476;2023-07-28T03:21:46;7.43;;;6.63;;
50012;SDS011;35901;48.694;9.476;2023-07-28T03:24:12;7.07;;;6.37;;
50012;SDS011;35901;48.694;9.476;2023-07-28T03:26:37;7.17;;;6.47;;
50012;SDS011;35901;48.694;9.476;2023-07-28T03:29:04;7.93;;;7.13;;
50012;SDS011;35901;48.694;9.476;2023-07-28T03:31:29;7.80;;;7.10;;
50012;SDS011;35901;48.694;9.476;2023-07-28T03:33:55;8.10;;;7.30;;
50012;SDS011;35901;48.694;9.476;2023-07-28T03:36:24;7.97;;;7.20;;
50012;SDS011;35901;48.694;9.476;2023-07-28T03:38:50;7.93;;;7.23;;
50012;SDS011;35901;48.694;9.476;2023-07-28T03:41:15;7.37;;;6.67;;
50012;SDS011;35901;48.694;9.476;2023-07-28T03:43:41;7.57;;;6.87;;
50012;SDS011;35901;48.694;9.476;2023-07-28T03:46:07;7.43;;;6.73;;
50012;SDS011;35901;48.694;9.476;2023-07-28T03:48:33;8.07;;;7.27;;
50012;SDS011;35901;48.694;9.476;2023-07-28T03:50:58;11.33;;;8.00;;
50012;SDS011;35901;48.694;9.476;2023-07-28T03:53:24;8.33;;;7.53;;
50012;SDS011;35901;48.694;9.476;2023-07-28T03:55:51;8.00;;;7.30;;
50012;SDS011;35901;48.694;9.476;2023-07-28T03:58:16;7.67;;;6.97;;
50012;SDS011;35901;48.694;9.476;2023-07-28T04:00:42;7.83;;;7.03;;
50012;SDS011;35901;48.694;9.476;2023-07-28T04:03:08;8.30;;;7.50;;
50012;SDS011;35901;48.694;9.476;2023-07-28T04:05:35;7.63;;;6.93;;
50012;SDS011;35901;48.694;9.476;2023-07-28T04:08:01;7.53;;;6.80;;
50012;SDS011;35901;48.694;9.476;2023-07-28T04:10:27;7.60;;;6.90;;
50012;SDS011;35901;48.694;9.476;2023-07-28T04:12:53;7.60;;;6.80;;
50012;SDS011;35901;48.694;9.476;2023-07-28T04:15:19;8.60;;;7.60;;
50012;SDS011;35901;48.694;9.476;2023-07-28T04:17:44;8.00;;;7.20;;
50012;SDS011;35901;48.694;9.476;2023-07-28T04:20:10;8.17;;;7.37;;
50012;SDS011;35901;48.694;9.476;2023-07-28T04:22:36;7.83;;;7.13;;
50012;SDS011;35901;48.694;9.476;2023-07-28T04:25:02;7.80;;;7.10;;
50012;SDS011;35901;48.694;9.476;2023-07-28T04:27:29;8.70;;;8.00;;
50012;SDS011;35901;48.694;9.476;2023-07-28T04:29:58;9.60;;;8.70;;
50012;SDS011;35901;48.694;9.476;2023-07-28T04:32:24;9.00;;;8.13;;
50012;SDS011;35901;48.694;9.476;2023-07-28T04:34:52;10.33;;;8.73;;
50012;SDS011;35901;48.694;9.476;2023-07-28T04:37:37;8.97;;;8.17;;
50012;SDS011;35901;48.694;9.476;2023-07-28T04:40:03;9.43;;;8.13;;
50012;SDS011;35901;48.694;9.476;2023-07-28T04:42:34;9.23;;;8.33;;
50012;SDS011;35901;48.694;9.476;2023-07-28T04:45:01;9.17;;;8.27;;
50012;SDS011;35901;48.694;9.476;2023-07-28T04:47:27;9.23;;;8.07;;
50012;SDS011;35901;48.694;9.476;2023-07-28T04:49:53;8.80;;;8.00;;
50012;SDS011;35901;48.694;9.476;2023-07-28T04:52:39;8.13;;;7.33;;
50012;SDS011;35901;48.694;9.476;2023-07-28T04:55:22;8.30;;;7.50;;
50012;SDS011;35901;48.694;9.476;2023-07-28T04:57:48;12.73;;;8.50;;
50012;SDS011;35901;48.694;9.476;2023-07-28T05:00:14;9.00;;;8.07;;
50012;SDS011;35901;48.694;9.476;2023-07-28T05:02:40;8.67;;;7.87;;
50012;SDS011;35901;48.694;9.476;2023-07-28T05:05:06;10.67;;;8.30;;
50012;SDS011;35901;48.694;9.476;2023-07-28T05:07:32;8.80;;;7.90;;
50012;SDS011;35901;48.694;9.476;2023-07-28T05:09:58;9.83;;;8.10;;
50012;SDS011;35901;48.694;9.476;2023-07-28T05:12:25;8.77;;;7.97;;
50012;SDS011;35901;48.694;9.476;2023-07-28T05:14:51;8.10;;;7.30;;
50012;SDS011;35901;48.694;9.476;2023-07-28T05:17:19;7.47;;;6.80;;
50012;SDS011;35901;48.694;9.476;2023-07-28T05:20:04;7.90;;;7.20;;
50012;SDS011;35901;48.694;9.476;2023-07-28T05:22:48;6.67;;;6.17;;
50012;SDS011;35901;48.694;9.476;2023-07-28T05:25:15;8.43;;;7.70;;
50012;SDS011;35901;48.694;9.476;2023-07-28T05:27:42;8.67;;;7.80;;
50012;SDS011;35901;48.694;9.476;2023-07-28T05:30:08;7.90;;;7.10;;
50012;SDS011;35901;48.694;9.476;2023-07-28T05:32:34;7.80;;;6.93;;
50012;SDS011;35901;48.694;9.476;2023-07-28T05:35:20;8.47;;;7.57;;
50012;SDS011;35901;48.694;9.476;2023-07-28T05:37:46;7.80;;;7.07;;
50012;SDS011;35901;48.694;9.476;2023-07-28T05:40:12;7.57;;;6.87;;
50012;SDS011;35901;48.694;9.476;2023-07-28T05:42:38;7.87;;;7.17;;
50012;SDS011;35901;48.694;9.476;2023-07-28T05:45:04;8.60;;;6.57;;
50012;SDS011;35901;48.694;9.476;2023-07-28T05:47:30;7.37;;;6.67;;
50012;SDS011;35901;48.694;9.476;2023-07-28T05:49:56;7.50;;;6.67;;
50012;SDS011;35901;48.694;9.476;2023-07-28T05:52:22;8.87;;;6.90;;
50012;SDS011;35901;48.694;9.476;2023-07-28T05:54:48;7.87;;;7.07;;
50012;SDS011;35901;48.694;9.476;2023-07-28T05:57:14;7.97;;;6.43;;
50012;SDS011;35901;48.694;9.476;2023-07-28T05:59:39;7.10;;;6.53;;
50012;SDS011;35901;48.694;9.476;2023-07-28T06:02:05;7.30;;;6.60;;
50012;SDS011;35901;48.694;9.476;2023-07-28T06:04:31;7.00;;;6.40;;
50012;SDS011;35901;48.694;9.476;2023-07-28T06:06:59;7.37;;;6.67;;
50012;SDS011;35901;48.694;9.476;2023-07-28T06:09:25;7.00;;;6.40;;
50012;SDS011;35901;48.694;9.476;2023-07-28T06:11:50;7.20;;;6.60;;
50012;SDS011;35901;48.694;9.476;2023-07-28T06:14:16;6.57;;;5.97;;
50012;SDS011;35901;48.694;9.476;2023-07-28T06:16:42;6.77;;;6.17;;
50012;SDS011;35901;48.694;9.476;2023-07-28T06:19:07;6.73;;;6.13;;
50012;SDS011;35901;48.694;9.476;2023-07-28T06:21:35;7.50;;;6.70;;
50012;SDS011;35901;48.694;9.476;2023-07-28T06:24:01;6.50;;;5.90;;
50012;SDS011;35901;48.694;9.476;2023-07-28T06:26:27;8.63;;;6.13;;
50012;SDS011;35901;48.694;9.476;2023-07-28T06:28:52;6.00;;;5.50;;
50012;SDS011;35901;48.694;9.476;2023-07-28T06:31:18;6.13;;;5.63;;
50012;SDS011;35901;48.694;9.476;2023-07-28T06:33:44;5.77;;;5.27;;
50012;SDS011;35901;48.694;9.476;2023-07-28T06:36:13;6.47;;;5.87;;
50012;SDS011;35901;48.694;9.476;2023-07-28T06:38:41;6.37;;;5.87;;
50012;SDS011;35901;48.694;9.476;2023-07-28T06:41:09;6.30;;;5.70;;
50012;SDS011;35901;48.694;9.476;2023-07-28T06:43:35;6.03;;;5.53;;
50012;SDS011;35901;48.694;9.476;2023-07-28T06:46:00;5.90;;;5.30;;
50012;SDS011;35901;48.694;9.476;2023-07-28T06:48:27;6.37;;;5.77;;
50012;SDS011;35901;48.694;9.476;2023-07-28T06:50:52;5.93;;;5.33;;
50012;SDS011;35901;48.694;9.476;2023-07-28T06:53:20;6.20;;;5.60;;
50012;SDS011;35901;48.694;9.476;2023-07-28T06:55:45;6.77;;;5.10;;
50012;SDS011;35901;48.694;9.476;2023-07-28T06:58:11;5.70;;;5.20;;
50012;SDS011;35901;48.694;9.476;2023-07-28T07:00:37;6.30;;;5.70;;
50012;SDS011;35901;48.694;9.476;2023-07-28T07:03:03;6.07;;;5.57;;
50012;SDS011;35901;48.694;9.476;2023-07-28T07:05:28;5.77;;;5.23;;
50012;SDS011;35901;48.694;9.476;2023-07-28T07:07:54;5.67;;;5.20;;
50012;SDS011;35901;48.694;9.476;2023-07-28T07:10:20;5.40;;;5.00;;
50012;SDS011;35901;48.694;9.476;2023-07-28T07:12:47;5.03;;;4.53;;
50012;SDS011;35901;48.694;9.476;2023-07-28T07:15:13;5.87;;;5.40;;
50012;SDS011;35901;48.694;9.476;2023-07-28T07:17:38;6.20;;;5.60;;
50012;SDS011;35901;48.694;9.476;2023-07-28T07:20:05;5.90;;;5.40;;
50012;SDS011;35901;48.694;9.476;2023-07-28T07:22:31;5.30;;;4.90;;
50012;SDS011;35901;48.694;9.476;2023-07-28T07:24:58;5.33;;;4.83;;
50012;SDS011;35901;48.694;9.476;2023-07-28T07:27:35;5.30;;;4.87;;
50012;SDS011;35901;48.694;9.476;2023-07-28T07:30:20;5.57;;;4.97;;
50012;SDS011;35901;48.694;9.476;2023-07-28T07:32:48;5.97;;;5.47;;
50012;SDS011;35901;48.694;9.476;2023-07-28T07:35:14;6.00;;;5.50;;
50012;SDS011;35901;48.694;9.476;2023-07-28T07:37:40;5.73;;;4.40;;
50012;SDS011;35901;48.694;9.476;2023-07-28T07:40:06;5.47;;;4.97;;
50012;SDS011;35901;48.694;9.476;2023-07-28T07:45:08;4.80;;;4.40;;
50012;SDS011;35901;48.694;9.476;2023-07-28T07:47:35;4.77;;;4.37;;
50012;SDS011;35901;48.694;9.476;2023-07-28T07:50:01;5.47;;;4.90;;
50012;SDS011;35901;48.694;9.476;2023-07-28T07:52:27;4.73;;;4.33;;
50012;SDS011;35901;48.694;9.476;2023-07-28T07:54:52;4.57;;;4.17;;
50012;SDS011;35901;48.694;9.476;2023-07-28T07:57:18;4.77;;;4.40;;
50012;SDS011;35901;48.694;9.476;2023-07-28T07:59:44;4.50;;;4.10;;
50012;SDS011;35901;48.694;9.476;2023-07-28T08:02:09;4.80;;;4.40;;
50012;SDS011;35901;48.694;9.476;2023-07-28T08:04:35;4.87;;;4.13;;
50012;SDS011;35901;48.694;9.476;2023-07-28T08:07:01;4.80;;;4.40;;
50012;SDS011;35901;48.694;9.476;2023-07-28T08:09:29;4.33;;;3.97;;
50012;SDS011;35901;48.694;9.476;2023-07-28T08:11:56;4.23;;;3.93;;
50012;SDS011;35901;48.694;9.476;2023-07-28T08:14:22;4.83;;;4.30;;
50012;SDS011;35901;48.694;9.476;2023-07-28T08:16:51;4.13;;;3.73;;
50012;SDS011;35901;48.694;9.476;2023-07-28T08:19:16;4.00;;;3.70;;
50012;SDS011;35901;48.694;9.476;2023-07-28T08:21:42;4.00;;;3.70;;
50012;SDS011;35901;48.694;9.476;2023-07-28T08:24:08;4.53;;;4.07;;
50012;SDS011;35901;48.694;9.476;2023-07-28T08:26:34;4.50;;;4.20;;
50012;SDS011;35901;48.694;9.476;2023-07-28T08:29:00;4.80;;;4.40;;
50012;SDS011;35901;48.694;9.476;2023-07-28T08:31:25;4.30;;;3.60;;
50012;SDS011;35901;48.694;9.476;2023-07-28T08:33:51;4.40;;;4.00;;
50012;SDS011;35901;48.694;9.476;2023-07-28T08:36:16;3.90;;;3.60;;
50012;SDS011;35901;48.694;9.476;2023-07-28T08:38:43;4.07;;;3.77;;
50012;SDS011;35901;48.694;9.476;2023-07-28T08:41:10;3.50;;;3.13;;
50012;SDS011;35901;48.694;9.476;2023-07-28T08:43:35;3.40;;;3.03;;
50012;SDS011;35901;48.694;9.476;2023-07-28T08:46:02;4.23;;;3.23;;
50012;SDS011;35901;48.694;9.476;2023-07-28T08:48:28;3.53;;;3.10;;
50012;SDS011;35901;48.694;9.476;2023-07-28T08:50:54;3.50;;;3.20;;
50012;SDS011;35901;48.694;9.476;2023-07-28T08:53:19;3.60;;;3.30;;
50012;SDS011;35901;48.694;9.476;2023-07-28T08:55:45;3.07;;;2.87;;
50012;SDS011;35901;48.694;9.476;2023-07-28T08:58:15;2.70;;;2.50;;
50012;SDS011;35901;48.694;9.476;2023-07-28T09:00:42;3.00;;;2.80;;
50012;SDS011;35901;48.694;9.476;2023-07-28T09:03:09;2.83;;;2.63;;
50012;SDS011;35901;48.694;9.476;2023-07-28T09:05:34;3.10;;;2.80;;
50012;SDS011;35901;48.694;9.476;2023-07-28T09:08:00;3.73;;;3.20;;
50012;SDS011;35901;48.694;9.476;2023-07-28T09:10:29;3.00;;;2.80;;
50012;SDS011;35901;48.694;9.476;2023-07-28T09:13:08;3.20;;;2.90;;
50012;SDS011;35901;48.694;9.476;2023-07-28T09:15:36;3.23;;;2.93;;
50012;SDS011;35901;48.694;9.476;2023-07-28T09:18:01;3.73;;;3.03;;
50012;SDS011;35901;48.694;9.476;2023-07-28T09:20:33;3.10;;;2.90;;
50012;SDS011;35901;48.694;9.476;2023-07-28T09:23:00;2.70;;;2.50;;
50012;SDS011;35901;48.694;9.476;2023-07-28T09:25:28;3.20;;;2.90;;
50012;SDS011;35901;48.694;9.476;2023-07-28T09:27:54;5.73;;;3.00;;
50012;SDS011;35901;48.694;9.476;2023-07-28T09:30:20;3.83;;;2.70;;
50012;SDS011;35901;48.694;9.476;2023-07-28T09:32:51;2.63;;;2.43;;
50012;SDS011;35901;48.694;9.476;2023-07-28T09:35:19;2.97;;;2.77;;
50012;SDS011;35901;48.694;9.476;2023-07-28T09:37:49;3.00;;;2.77;;
50012;SDS011;35901;48.694;9.476;2023-07-28T09:40:18;2.87;;;2.67;;
50012;SDS011;35901;48.694;9.476;2023-07-28T09:42:46;2.70;;;2.50;;
50012;SDS011;35901;48.694;9.476;2023-07-28T09:45:16;3.33;;;2.70;;
50012;SDS011;35901;48.694;9.476;2023-07-28T09:47:43;5.33;;;2.80;;
50012;SDS011;35901;48.694;9.476;2023-07-28T09:50:10;3.13;;;2.93;;
50012;SDS011;35901;48.694;9.476;2023-07-28T09:52:45;4.10;;;3.00;;
50012;SDS011;35901;48.694;9.476;2023-07-28T09:55:12;3.50;;;3.13;;
50012;SDS011;35901;48.694;9.476;2023-07-28T10:00:10;3.80;;;3.40;;
50012;SDS011;35901;48.694;9.476;2023-07-28T10:02:38;4.07;;;2.80;;
50012;SDS011;35901;48.694;9.476;2023-07-28T10:05:05;3.00;;;2.80;;
50012;SDS011;35901;48.694;9.476;2023-07-28T10:07:32;2.97;;;2.67;;
50012;SDS011;35901;48.694;9.476;2023-07-28T10:10:04;3.20;;;2.87;;
50012;SDS011;35901;48.694;9.476;2023-07-28T10:12:39;3.87;;;3.00;;
50012;SDS011;35901;48.694;9.476;2023-07-28T10:15:07;2.90;;;2.70;;
50012;SDS011;35901;48.694;9.476;2023-07-28T10:17:36;3.67;;;2.90;;
50012;SDS011;35901;48.694;9.476;2023-07-28T10:20:05;4.60;;;2.90;;
50012;SDS011;35901;48.694;9.476;2023-07-28T10:22:43;3.20;;;2.90;;
50012;SDS011;35901;48.694;9.476;2023-07-28T10:25:10;3.57;;;2.80;;
50012;SDS011;35901;48.694;9.476;2023-07-28T10:27:45;2.90;;;2.70;;
50012;SDS011;35901;48.694;9.476;2023-07-28T10:30:12;2.90;;;2.60;;
50012;SDS011;35901;48.694;9.476;2023-07-28T10:32:43;4.60;;;3.07;;
50012;SDS011;35901;48.694;9.476;2023-07-28T10:37:45;3.00;;;2.73;;
50012;SDS011;35901;48.694;9.476;2023-07-28T10:40:33;3.20;;;2.77;;
50012;SDS011;35901;48.694;9.476;2023-07-28T10:42:59;3.77;;;2.80;;
50012;SDS011;35901;48.694;9.476;2023-07-28T10:45:25;3.30;;;2.80;;
50012;SDS011;35901;48.694;9.476;2023-07-28T10:47:53;3.33;;;2.57;;
50012;SDS011;35901;48.694;9.476;2023-07-28T10:50:21;3.60;;;2.40;;
50012;SDS011;35901;48.694;9.476;2023-07-28T10:52:52;2.43;;;2.33;;
50012;SDS011;35901;48.694;9.476;2023-07-28T10:57:45;2.73;;;2.53;;
50012;SDS011;35901;48.694;9.476;2023-07-28T11:00:12;2.60;;;2.40;;
50012;SDS011;35901;48.694;9.476;2023-07-28T11:02:47;2.57;;;2.37;;
50012;SDS011;35901;48.694;9.476;2023-07-28T11:05:18;3.10;;;2.80;;
50012;SDS011;35901;48.694;9.476;2023-07-28T11:07:49;2.90;;;2.70;;
50012;SDS011;35901;48.694;9.476;2023-07-28T11:10:17;3.40;;;2.47;;
50012;SDS011;35901;48.694;9.476;2023-07-28T11:12:44;2.30;;;2.20;;
50012;SDS011;35901;48.694;9.476;2023-07-28T11:15:11;2.83;;;2.40;;
50012;SDS011;35901;48.694;9.476;2023-07-28T11:17:38;2.63;;;2.43;;
50012;SDS011;35901;48.694;9.476;2023-07-28T11:20:19;2.57;;;2.37;;
50012;SDS011;35901;48.694;9.476;2023-07-28T11:22:47;2.33;;;2.17;;
50012;SDS011;35901;48.694;9.476;2023-07-28T11:25:18;2.80;;;2.20;;
50012;SDS011;35901;48.694;9.476;2023-07-28T11:27:44;2.60;;;2.40;;
50012;SDS011;35901;48.694;9.476;2023-07-28T11:30:11;2.77;;;2.53;;
50012;SDS011;35901;48.694;9.476;2023-07-28T11:32:38;2.50;;;2.30;;
50012;SDS011;35901;48.694;9.476;2023-07-28T11:35:08;2.93;;;2.27;;
50012;SDS011;35901;48.694;9.476;2023-07-28T11:37:36;2.70;;;2.10;;
50012;SDS011;35901;48.694;9.476;2023-07-28T11:40:03;2.30;;;2.10;;
50012;SDS011;35901;48.694;9.476;2023-07-28T11:42:54;2.67;;;2.07;;
50012;SDS011;35901;48.694;9.476;2023-07-28T11:45:21;2.30;;;2.20;;
50012;SDS011;35901;48.694;9.476;2023-07-28T11:48:06;2.40;;;2.20;;
50012;SDS011;35901;48.694;9.476;2023-07-28T11:50:38;2.43;;;2.23;;
50012;SDS011;35901;48.694;9.476;2023-07-28T11:53:05;2.50;;;2.30;;
50012;SDS011;35901;48.694;9.476;2023-07-28T11:55:32;2.50;;;2.30;;
50012;SDS011;35901;48.694;9.476;2023-07-28T11:57:59;2.30;;;2.20;;
50012;SDS011;35901;48.694;9.476;2023-07-28T12:00:34;2.40;;;2.20;;
50012;SDS011;35901;48.694;9.476;2023-07-28T12:03:08;2.40;;;2.20;;
50012;SDS011;35901;48.694;9.476;2023-07-28T12:05:36;2.33;;;2.10;;
50012;SDS011;35901;48.694;9.476;2023-07-28T12:08:07;2.23;;;2.03;;
50012;SDS011;35901;48.694;9.476;2023-07-28T12:10:33;2.10;;;2.00;;
50012;SDS011;35901;48.694;9.476;2023-07-28T12:13:06;2.33;;;2.10;;
50012;SDS011;35901;48.694;9.476;2023-07-28T12:15:33;2.40;;;2.20;;
50012;SDS011;35901;48.694;9.476;2023-07-28T12:18:03;3.50;;;2.23;;
50012;SDS011;35901;48.694;9.476;2023-07-28T12:20:34;2.27;;;2.07;;
50012;SDS011;35901;48.694;9.476;2023-07-28T12:23:03;2.10;;;2.00;;
50012;SDS011;35901;48.694;9.476;2023-07-28T12:25:30;2.47;;;2.27;;
50012;SDS011;35901;48.694;9.476;2023-07-28T12:27:56;2.37;;;2.17;;
50012;SDS011;35901;48.694;9.476;2023-07-28T12:30:22;2.40;;;2.23;;
50012;SDS011;35901;48.694;9.476;2023-07-28T12:32:48;2.27;;;2.17;;
50012;SDS011;35901;48.694;9.476;2023-07-28T12:35:14;4.60;;;2.80;;
50012;SDS011;35901;48.694;9.476;2023-07-28T12:37:39;4.17;;;2.83;;
50012;SDS011;35901;48.694;9.476;2023-07-28T12:40:05;2.93;;;2.73;;
50012;SDS011;35901;48.694;9.476;2023-07-28T12:42:32;3.10;;;2.77;;
50012;SDS011;35901;48.694;9.476;2023-07-28T12:44:57;3.27;;;2.87;;
50012;SDS011;35901;48.694;9.476;2023-07-28T12:47:23;3.03;;;2.83;;
50012;SDS011;35901;48.694;9.476;2023-07-28T12:49:49;3.00;;;2.70;;
50012;SDS011;35901;48.694;9.476;2023-07-28T12:52:15;3.80;;;3.23;;
50012;SDS011;35901;48.694;9.476;2023-07-28T12:54:40;3.57;;;3.27;;
50012;SDS011;35901;48.694;9.476;2023-07-28T12:57:07;3.33;;;3.07;;
50012;SDS011;35901;48.694;9.476;2023-07-28T12:59:35;3.10;;;2.90;;
50012;SDS011;35901;48.694;9.476;2023-07-28T13:02:01;3.20;;;3.00;;
50012;SDS011;35901;48.694;9.476;2023-07-28T13:04:27;3.00;;;2.80;;
50012;SDS011;35901;48.694;9.476;2023-07-28T13:06:52;3.17;;;2.80;;
50012;SDS011;35901;48.694;9.476;2023-07-28T13:09:18;3.37;;;3.13;;
50012;SDS011;35901;48.694;9.476;2023-07-28T13:11:44;4.27;;;2.90;;
50012;SDS011;35901;48.694;9.476;2023-07-28T13:14:09;5.73;;;3.57;;
50012;SDS011;35901;48.694;9.476;2023-07-28T13:16:35;3.73;;;3.33;;
50012;SDS011;35901;48.694;9.476;2023-07-28T13:19:03;5.27;;;3.37;;
50012;SDS011;35901;48.694;9.476;2023-07-28T13:21:31;3.83;;;3.40;;
50012;SDS011;35901;48.694;9.476;2023-07-28T13:23:58;3.50;;;3.20;;
50012;SDS011;35901;48.694;9.476;2023-07-28T13:26:24;4.27;;;3.90;;
50012;SDS011;35901;48.694;9.476;2023-07-28T13:28:50;4.10;;;3.70;;
50012;SDS011;35901;48.694;9.476;2023-07-28T13:31:16;3.70;;;3.30;;
50012;SDS011;35901;48.694;9.476;2023-07-28T13:33:42;4.10;;;3.80;;
50012;SDS011;35901;48.694;9.476;2023-07-28T13:36:08;3.90;;;3.60;;
50012;SDS011;35901;48.694;9.476;2023-07-28T13:38:34;4.07;;;3.50;;
50012;SDS011;35901;48.694;9.476;2023-07-28T13:41:00;3.73;;;3.43;;
50012;SDS011;35901;48.694;9.476;2023-07-28T13:43:27;4.27;;;3.50;;
50012;SDS011;35901;48.694;9.476;2023-07-28T13:45:52;3.77;;;3.47;;
50012;SDS011;35901;48.694;9.476;2023-07-28T13:48:18;3.67;;;3.37;;
50012;SDS011;35901;48.694;9.476;2023-07-28T13:50:44;3.93;;;3.50;;
50012;SDS011;35901;48.694;9.476;2023-07-28T13:53:09;3.70;;;3.40;;
50012;SDS011;35901;48.694;9.476;2023-07-28T13:55:35;3.70;;;3.33;;
50012;SDS011;35901;48.694;9.476;2023-07-28T13:58:01;3.63;;;3.40;;
50012;SDS011;35901;48.694;9.476;2023-07-28T14:00:26;3.97;;;3.60;;
50012;SDS011;35901;48.694;9.476;2023-07-28T14:02:52;3.80;;;3.50;;
50012;SDS011;35901;48.694;9.476;2023-07-28T14:05:18;3.67;;;3.37;;
50012;SDS011;35901;48.694;9.476;2023-07-28T14:07:44;3.67;;;3.47;;
50012;SDS011;35901;48.694;9.476;2023-07-28T14:10:11;3.37;;;3.17;;
50012;SDS011;35901;48.694;9.476;2023-07-28T14:12:37;3.50;;;3.20;;
50012;SDS011;35901;48.694;9.476;2023-07-28T14:15:03;3.00;;;2.80;;
50012;SDS011;35901;48.694;9.476;2023-07-28T14:17:29;3.93;;;3.30;;
50012;SDS011;35901;48.694;9.476;2023-07-28T14:19:55;3.57;;;3.27;;
50012;SDS011;35901;48.694;9.476;2023-07-28T14:22:20;5.60;;;3.77;;
50012;SDS011;35901;48.694;9.476;2023-07-28T14:24:46;3.97;;;3.67;;
50012;SDS011;35901;48.694;9.476;2023-07-28T14:27:12;4.13;;;3.83;;
50012;SDS011;35901;48.694;9.476;2023-07-28T14:29:37;4.73;;;3.53;;
50012;SDS011;35901;48.694;9.476;2023-07-28T14:32:03;4.77;;;4.37;;
50012;SDS011;35901;48.694;9.476;2023-07-28T14:34:29;4.40;;;4.00;;
50012;SDS011;35901;48.694;9.476;2023-07-28T14:36:55;4.43;;;4.00;;
50012;SDS011;35901;48.694;9.476;2023-07-28T14:39:21;4.17;;;3.87;;
50012;SDS011;35901;48.694;9.476;2023-07-28T14:41:46;4.63;;;3.90;;
50012;SDS011;35901;48.694;9.476;2023-07-28T14:44:12;4.07;;;3.63;;
50012;SDS011;35901;48.694;9.476;2023-07-28T14:46:38;4.07;;;3.77;;
50012;SDS011;35901;48.694;9.476;2023-07-28T14:49:03;3.70;;;3.40;;
50012;SDS011;35901;48.694;9.476;2023-07-28T14:51:29;4.20;;;3.33;;
50012;SDS011;35901;48.694;9.476;2023-07-28T14:53:55;3.70;;;3.40;;
50012;SDS011;35901;48.694;9.476;2023-07-28T14:56:20;3.63;;;3.33;;
50012;SDS011;35901;48.694;9.476;2023-07-28T14:58:49;3.43;;;3.20;;
50012;SDS011;35901;48.694;9.476;2023-07-28T15:01:16;3.73;;;3.43;;
50012;SDS011;35901;48.694;9.476;2023-07-28T15:03:42;3.73;;;3.43;;
50012;SDS011;35901;48.694;9.476;2023-07-28T15:06:08;3.13;;;2.93;;